ZBTJ

Tianjin Binhai International Airport

Tianjin, China
TAF ZBTJ 251927Z 2600/2624 23004MPS 3500 HZ NSC TX26/2607Z TN12/2622Z BECMG 2611/2612 03006G12MPS
Issued Valid From Valid To
Apr-25 @ 19:27 UTC
(8 hours ago)
Apr-26 @ 00:00 UTC
(4 hours ago)
Apr-27 @ 00:00 UTC
(in 20 hours)
Apr-26 @ 00:00 to Apr-26 @ 11:00
TAF ZBTJ 251927Z 2600/2624 23004MPS 3500 HZ NSC TX26/2607Z TN12/2622Z
Wind Visibility Clouds Conditions
230° at 8 knots 3,492 meters
  • No significant clouds
  • Haze
Becoming Apr-26 @ 11:00 to Apr-27 @ 00:00
BECMG 2611/2612 03006G12MPS
Wind Visibility Clouds Conditions
30° at 12 knots
 Gusting to 23 knots
3,492 meters
  • No significant clouds
  • Haze
TAF ZBTJ 251927Z 2600/2624 23004MPS 3500 HZ NSC TX26/2607Z TN12/2622Z BECMG 2611/2612 03006G12MPS
Issued Apr-25 @ 19:27 UTC
(8 hours ago)
Valid From Apr-26 @ 00:00 UTC
(4 hours ago)
Valid To Apr-27 @ 00:00 UTC
(in 20 hours)
Apr-26 @ 00:00 - Apr-26 @ 11:00
Wind Visibility
230° at 8 knots 3,492 meters
Clouds
  • No significant clouds
Conditions
  • Haze
Becoming Apr-26 @ 11:00 - Apr-27 @ 00:00
Wind Visibility
30° at 12 knots
 Gusting to 23 knots
3,492 meters
Clouds
  • No significant clouds
Conditions
  • Haze